createdAt,value
2018-05-26T00:00:40.388Z,18.20
2018-05-26T00:03:08.648Z,18.10
2018-05-26T00:05:36.172Z,18.10
2018-05-26T00:08:03.660Z,18.10
2018-05-26T00:10:31.175Z,18.00
2018-05-26T00:12:58.667Z,18.10
2018-05-26T00:15:26.943Z,18.10
2018-05-26T00:17:54.435Z,18.10
2018-05-26T00:20:21.995Z,18.10
2018-05-26T00:22:56.075Z,18.00
2018-05-26T00:25:23.587Z,18.00
2018-05-26T00:27:51.847Z,18.10
2018-05-26T00:30:19.376Z,18.00
2018-05-26T00:32:46.875Z,18.00
2018-05-26T00:35:14.371Z,17.90
2018-05-26T00:37:41.880Z,17.90
2018-05-26T00:40:09.371Z,17.80
2018-05-26T00:42:36.927Z,17.80
2018-05-26T00:45:04.419Z,17.80
2018-05-26T00:47:31.930Z,17.80
2018-05-26T00:49:59.429Z,17.90
2018-05-26T00:52:27.706Z,17.60
2018-05-26T00:54:55.961Z,17.50
2018-05-26T00:57:23.469Z,17.40
2018-05-26T00:59:51.727Z,17.40
2018-05-26T01:02:19.235Z,17.40
2018-05-26T01:04:47.491Z,17.10
2018-05-26T01:07:15.095Z,17.10
2018-05-26T01:09:43.351Z,17.20
2018-05-26T01:12:10.871Z,17.20
2018-05-26T01:14:38.363Z,17.10
2018-05-26T01:17:05.871Z,17.00
2018-05-26T01:19:33.362Z,16.90
2018-05-26T01:22:01.642Z,16.80
2018-05-26T01:24:29.915Z,16.90
2018-05-26T01:26:57.420Z,16.90
2018-05-26T01:29:26.362Z,17.00
2018-05-26T01:31:54.319Z,16.90
2018-05-26T01:34:21.813Z,16.70
2018-05-26T01:36:49.328Z,16.70
2018-05-26T01:39:16.819Z,16.70
2018-05-26T01:41:45.191Z,16.70
2018-05-26T01:44:12.686Z,16.70
2018-05-26T01:46:40.398Z,16.70
2018-05-26T01:49:08.155Z,16.60
2018-05-26T01:51:35.821Z,16.50
2018-05-26T01:54:03.676Z,16.40
2018-05-26T01:56:31.308Z,16.50
2018-05-26T01:58:58.831Z,16.60
2018-05-26T02:01:27.088Z,16.60
2018-05-26T02:03:55.391Z,16.50
2018-05-26T02:06:22.883Z,16.50
2018-05-26T02:08:51.158Z,16.40
2018-05-26T02:11:19.416Z,16.30
2018-05-26T02:13:46.967Z,16.30
2018-05-26T02:16:14.490Z,16.30
2018-05-26T02:18:42.774Z,16.20
2018-05-26T02:21:10.298Z,16.10
2018-05-26T02:23:37.827Z,16.10
2018-05-26T02:26:06.091Z,16.00
2018-05-26T02:28:33.619Z,16.00
2018-05-26T02:31:01.123Z,16.10
2018-05-26T02:33:28.729Z,16.10
2018-05-26T02:35:56.985Z,16.10
2018-05-26T02:38:24.504Z,16.10
2018-05-26T02:40:52.770Z,15.90
2018-05-26T02:43:20.284Z,15.90
2018-05-26T02:45:47.767Z,15.90
2018-05-26T02:48:15.301Z,16.00
2018-05-26T02:50:43.565Z,15.90
2018-05-26T02:53:11.070Z,15.80
2018-05-26T02:55:38.587Z,15.90
2018-05-26T02:58:06.092Z,15.90
2018-05-26T03:00:34.377Z,15.90
2018-05-26T03:03:01.868Z,15.80
2018-05-26T03:05:35.872Z,15.80
2018-05-26T03:08:09.155Z,15.80
2018-05-26T03:10:42.524Z,15.80
2018-05-26T03:13:15.677Z,15.80
2018-05-26T03:18:50.780Z,15.80
2018-05-26T03:21:18.271Z,15.80
2018-05-26T03:23:46.551Z,15.70
2018-05-26T03:26:14.819Z,15.70
2018-05-26T03:28:42.343Z,15.70
2018-05-26T03:31:09.840Z,15.60
2018-05-26T03:33:37.334Z,15.60
2018-05-26T03:36:04.847Z,15.50
2018-05-26T03:38:32.337Z,15.50
2018-05-26T03:40:59.879Z,15.60
2018-05-26T03:43:28.134Z,15.70
2018-05-26T03:45:55.644Z,15.70
2018-05-26T03:48:23.131Z,15.80
2018-05-26T03:50:50.653Z,16.10
2018-05-26T03:53:18.148Z,16.10
2018-05-26T03:55:58.324Z,16.00
2018-05-26T03:58:37.898Z,16.00
2018-05-26T04:01:05.421Z,16.10
2018-05-26T04:03:32.917Z,16.20
2018-05-26T04:06:00.497Z,16.40
2018-05-26T04:08:27.963Z,16.60
2018-05-26T04:10:55.493Z,16.80
2018-05-26T04:13:22.983Z,17.00
2018-05-26T04:15:50.511Z,17.50
2018-05-26T04:18:18.003Z,18.00
2018-05-26T04:20:45.512Z,17.80
2018-05-26T04:23:13.772Z,17.90
2018-05-26T04:25:42.052Z,18.10
2018-05-26T04:28:11.065Z,18.10
2018-05-26T04:30:39.355Z,18.30
2018-05-26T04:33:06.844Z,18.30
2018-05-26T04:35:35.144Z,18.20
2018-05-26T04:38:03.398Z,17.90
2018-05-26T04:40:30.920Z,17.80
2018-05-26T04:42:58.416Z,17.60
2018-05-26T04:45:25.930Z,17.60
2018-05-26T04:47:53.420Z,17.50
2018-05-26T04:50:21.699Z,17.60
2018-05-26T04:52:49.956Z,17.70
2018-05-26T04:55:17.480Z,17.70
2018-05-26T04:57:45.779Z,18.10
2018-05-26T05:00:13.287Z,18.10
2018-05-26T05:02:40.779Z,18.20
2018-05-26T05:05:08.288Z,18.30
2018-05-26T05:07:35.783Z,18.40
2018-05-26T05:10:03.299Z,18.40
2018-05-26T05:12:30.796Z,18.40
2018-05-26T05:14:58.312Z,18.30
2018-05-26T05:17:25.803Z,18.30
2018-05-26T05:19:53.296Z,18.80
2018-05-26T05:22:21.589Z,18.90
2018-05-26T05:24:49.861Z,19.10
2018-05-26T05:27:18.163Z,19.10
2018-05-26T05:29:46.423Z,19.20
2018-05-26T05:32:13.939Z,19.20
2018-05-26T05:34:41.428Z,19.00
2018-05-26T05:37:08.946Z,19.00
2018-05-26T05:39:36.432Z,19.30
2018-05-26T05:42:04.709Z,19.40
2018-05-26T05:44:32.203Z,19.40
2018-05-26T05:47:00.483Z,19.40
2018-05-26T05:49:28.747Z,19.40
2018-05-26T05:51:56.255Z,19.40
2018-05-26T05:54:24.507Z,19.60
2018-05-26T05:56:52.020Z,19.60
2018-05-26T05:59:19.502Z,19.70
2018-05-26T06:01:47.009Z,20.10
2018-05-26T06:04:14.503Z,20.00
2018-05-26T06:06:42.067Z,20.40
2018-05-26T06:09:09.516Z,20.40
2018-05-26T06:11:37.024Z,20.50
2018-05-26T06:14:05.282Z,20.70
2018-05-26T06:16:32.795Z,20.70
2018-05-26T06:19:00.291Z,21.00
2018-05-26T06:21:27.810Z,21.30
2018-05-26T06:23:55.406Z,21.20
2018-05-26T06:26:23.738Z,22.00
2018-05-26T06:28:51.964Z,21.70
2018-05-26T06:31:19.459Z,21.60
2018-05-26T06:33:47.740Z,20.90
2018-05-26T06:36:16.004Z,20.90
2018-05-26T06:38:43.596Z,20.90
2018-05-26T06:41:11.135Z,20.70
2018-05-26T06:43:38.663Z,20.60
2018-05-26T06:46:06.156Z,20.50
2018-05-26T06:48:33.671Z,20.30
2018-05-26T06:51:01.204Z,20.40
2018-05-26T06:53:28.728Z,20.50
2018-05-26T06:55:56.993Z,20.60
2018-05-26T06:58:24.516Z,20.60
2018-05-26T07:00:52.071Z,20.70
2018-05-26T07:03:19.588Z,20.60
2018-05-26T07:05:47.080Z,20.50
2018-05-26T07:08:14.604Z,20.80
2018-05-26T07:10:42.103Z,20.80
2018-05-26T07:13:09.722Z,21.40
2018-05-26T07:15:37.988Z,21.40
2018-05-26T07:18:05.523Z,21.40
2018-05-26T07:20:33.015Z,21.40
2018-05-26T07:23:00.556Z,21.70
2018-05-26T07:25:28.092Z,21.90
2018-05-26T07:27:56.381Z,21.90
2018-05-26T07:30:24.656Z,22.10
2018-05-26T07:32:52.178Z,22.10
2018-05-26T07:35:19.672Z,22.00
2018-05-26T07:37:47.175Z,21.50
2018-05-26T07:40:14.703Z,21.90
2018-05-26T07:42:42.216Z,22.30
2018-05-26T07:45:10.507Z,22.30
2018-05-26T07:47:38.771Z,22.30
2018-05-26T07:50:06.318Z,22.30
2018-05-26T07:52:33.863Z,22.70
2018-05-26T07:55:02.144Z,22.90
2018-05-26T07:57:30.435Z,23.20
2018-05-26T07:59:58.827Z,23.20
2018-05-26T08:02:27.098Z,22.50
2018-05-26T08:04:55.388Z,22.80
2018-05-26T08:07:22.903Z,22.80
2018-05-26T08:09:50.425Z,22.80
2018-05-26T08:12:17.937Z,22.80
2018-05-26T08:14:45.505Z,23.30
2018-05-26T08:17:13.208Z,23.00
2018-05-26T08:19:40.707Z,23.30
2018-05-26T08:22:08.212Z,23.40
2018-05-26T08:24:36.505Z,23.60
2018-05-26T08:27:04.775Z,23.30
2018-05-26T08:29:33.051Z,23.40
2018-05-26T08:32:00.540Z,23.40
2018-05-26T08:34:28.836Z,23.50
2018-05-26T08:36:57.087Z,23.50
2018-05-26T08:39:24.616Z,23.50
2018-05-26T08:41:52.108Z,23.50
2018-05-26T08:44:19.621Z,23.50
2018-05-26T08:46:47.137Z,23.80
2018-05-26T08:49:14.668Z,24.20
2018-05-26T08:51:42.195Z,23.70
2018-05-26T08:54:09.688Z,24.30
2018-05-26T08:56:37.199Z,24.60
2018-05-26T08:59:05.480Z,24.60
2018-05-26T09:01:33.759Z,24.50
2018-05-26T09:04:01.250Z,24.50
2018-05-26T09:06:29.525Z,24.40
2018-05-26T09:08:57.800Z,24.60
2018-05-26T09:11:25.312Z,24.70
2018-05-26T09:13:52.872Z,25.00
2018-05-26T09:16:20.409Z,25.00
2018-05-26T09:18:48.010Z,24.70
2018-05-26T09:21:16.292Z,25.40
2018-05-26T09:23:44.561Z,25.70
2018-05-26T09:26:12.072Z,25.60
2018-05-26T09:28:39.575Z,25.60
2018-05-26T09:31:07.093Z,25.50
2018-05-26T09:33:35.354Z,25.20
2018-05-26T09:36:02.990Z,25.10
2018-05-26T09:38:30.497Z,25.20
2018-05-26T09:40:58.035Z,25.10
2018-05-26T09:43:25.579Z,25.30
2018-05-26T09:45:53.958Z,25.20
2018-05-26T09:48:21.544Z,25.20
2018-05-26T09:50:49.853Z,25.20
2018-05-26T09:53:17.347Z,25.20
2018-05-26T09:55:44.859Z,25.50
2018-05-26T09:58:12.355Z,25.40
2018-05-26T10:00:39.886Z,25.70
2018-05-26T10:03:07.380Z,25.80
2018-05-26T10:05:35.639Z,26.20
2018-05-26T10:08:03.155Z,26.20
2018-05-26T10:10:30.647Z,26.20
2018-05-26T10:12:58.191Z,26.10
2018-05-26T10:15:26.455Z,26.30
2018-05-26T10:17:53.976Z,26.30
2018-05-26T10:20:21.471Z,26.10
2018-05-26T10:22:48.983Z,26.20
2018-05-26T10:25:17.239Z,26.20
2018-05-26T10:27:44.753Z,26.20
2018-05-26T10:30:13.012Z,26.40
2018-05-26T10:32:40.536Z,26.40
2018-05-26T10:35:08.104Z,26.40
2018-05-26T10:37:35.624Z,26.50
2018-05-26T10:40:03.119Z,26.80
2018-05-26T10:42:31.407Z,27.00
2018-05-26T10:44:59.663Z,27.10
2018-05-26T10:47:27.175Z,27.10
2018-05-26T10:49:55.456Z,26.90
2018-05-26T10:52:22.948Z,26.90
2018-05-26T10:54:50.440Z,27.10
2018-05-26T10:57:17.970Z,27.30
2018-05-26T10:59:46.231Z,27.30
2018-05-26T11:02:13.751Z,27.30
2018-05-26T11:04:41.262Z,27.40
2018-05-26T11:07:08.752Z,27.10
2018-05-26T11:09:36.356Z,27.20
2018-05-26T11:12:04.614Z,27.50
2018-05-26T11:14:32.196Z,27.40
2018-05-26T11:16:59.640Z,27.30
2018-05-26T11:19:27.168Z,27.30
2018-05-26T11:21:54.750Z,27.50
2018-05-26T11:24:22.313Z,27.40
2018-05-26T11:26:49.775Z,27.40
2018-05-26T11:29:18.066Z,27.30
2018-05-26T11:31:46.326Z,27.30
2018-05-26T11:34:13.847Z,27.30
2018-05-26T11:36:41.413Z,27.60
2018-05-26T11:39:08.963Z,27.70
2018-05-26T11:41:36.532Z,27.50
2018-05-26T11:44:04.820Z,27.50
2018-05-26T11:46:33.079Z,27.80
2018-05-26T11:49:00.636Z,27.80
2018-05-26T11:51:28.875Z,27.50
2018-05-26T11:53:57.202Z,27.60
2018-05-26T11:56:24.693Z,27.60
2018-05-26T11:58:52.203Z,27.70
2018-05-26T12:01:20.467Z,28.00
2018-05-26T12:03:47.979Z,27.90
2018-05-26T12:06:15.543Z,27.70
2018-05-26T12:08:43.964Z,28.00
2018-05-26T12:11:12.245Z,28.00
2018-05-26T12:13:39.751Z,27.60
2018-05-26T12:16:07.277Z,27.80
2018-05-26T12:18:34.776Z,28.10
2018-05-26T12:21:02.298Z,28.30
2018-05-26T12:23:30.604Z,28.30
2018-05-26T12:25:58.132Z,28.30
2018-05-26T12:28:25.630Z,28.20
2018-05-26T12:30:53.907Z,28.10
2018-05-26T12:33:22.182Z,28.40
2018-05-26T12:35:49.700Z,28.40
2018-05-26T12:38:17.198Z,28.40
2018-05-26T12:40:44.844Z,28.20
2018-05-26T12:43:12.424Z,28.00
2018-05-26T12:45:39.983Z,28.00
2018-05-26T12:48:07.506Z,27.90
2018-05-26T12:50:35.119Z,27.80
2018-05-26T12:53:03.386Z,28.20
2018-05-26T12:55:30.899Z,28.20
2018-05-26T12:57:58.387Z,28.30
2018-05-26T13:00:25.912Z,28.20
2018-05-26T13:02:54.176Z,28.30
2018-05-26T13:05:21.687Z,28.30
2018-05-26T13:07:49.943Z,28.40
2018-05-26T13:10:17.467Z,28.40
2018-05-26T13:12:44.979Z,28.30
2018-05-26T13:15:12.515Z,28.40
2018-05-26T13:17:40.007Z,28.50
2018-05-26T13:20:07.565Z,28.40
2018-05-26T13:22:35.062Z,28.50
2018-05-26T13:25:02.561Z,28.30
2018-05-26T13:27:30.852Z,28.20
2018-05-26T13:29:59.106Z,28.40
2018-05-26T13:32:26.633Z,28.40
2018-05-26T13:34:54.127Z,28.50
2018-05-26T13:37:21.647Z,28.50
2018-05-26T13:39:49.137Z,28.70
2018-05-26T13:42:17.423Z,28.60
2018-05-26T13:44:45.688Z,28.50
2018-05-26T13:47:13.262Z,28.50
2018-05-26T13:49:41.559Z,28.50
2018-05-26T13:52:09.952Z,28.50
2018-05-26T13:54:37.420Z,28.50
2018-05-26T13:57:04.948Z,28.70
2018-05-26T13:59:32.449Z,28.90
2018-05-26T14:01:59.971Z,28.90
2018-05-26T14:04:27.468Z,28.80
2018-05-26T14:06:59.532Z,28.60
2018-05-26T14:09:27.809Z,28.70
2018-05-26T14:11:55.324Z,28.60
2018-05-26T14:14:22.817Z,28.70
2018-05-26T14:16:50.341Z,28.70
2018-05-26T14:19:17.844Z,28.80
2018-05-26T14:21:45.367Z,28.80
2018-05-26T14:24:12.904Z,28.70
2018-05-26T14:26:41.272Z,28.40
2018-05-26T14:29:08.777Z,28.40
2018-05-26T14:31:37.067Z,28.50
2018-05-26T14:34:05.340Z,28.50
2018-05-26T14:36:32.869Z,28.50
2018-05-26T14:39:00.363Z,28.40
2018-05-26T14:41:27.911Z,28.50
2018-05-26T14:43:55.418Z,28.20
2018-05-26T14:46:22.920Z,28.30
2018-05-26T14:48:51.195Z,28.70
2018-05-26T14:51:18.680Z,28.70
2018-05-26T14:53:46.978Z,29.00
2018-05-26T14:56:17.605Z,29.00
2018-05-26T14:58:45.898Z,29.00
2018-05-26T15:01:14.164Z,28.90
2018-05-26T15:03:41.681Z,28.90
2018-05-26T15:06:09.175Z,28.90
2018-05-26T15:08:36.873Z,29.00
2018-05-26T15:11:04.416Z,29.00
2018-05-26T15:13:31.935Z,28.90
2018-05-26T15:16:00.409Z,28.90
2018-05-26T15:18:27.930Z,28.80
2018-05-26T15:20:55.431Z,28.90
2018-05-26T15:23:22.939Z,28.70
2018-05-26T15:25:51.207Z,28.50
2018-05-26T15:28:18.724Z,28.50
2018-05-26T15:30:47.032Z,28.50
2018-05-26T15:33:14.568Z,28.50
2018-05-26T15:35:42.067Z,28.60
2018-05-26T15:38:09.589Z,28.40
2018-05-26T15:40:37.096Z,28.40
2018-05-26T15:43:05.384Z,28.30
2018-05-26T15:45:33.783Z,28.30
2018-05-26T15:48:02.067Z,28.30
2018-05-26T15:50:30.356Z,28.00
2018-05-26T15:52:58.657Z,28.10
2018-05-26T15:55:26.175Z,28.10
2018-05-26T15:57:53.846Z,28.30
2018-05-26T16:00:21.372Z,28.30
2018-05-26T16:02:48.907Z,28.10
2018-05-26T16:05:16.460Z,28.20
2018-05-26T16:07:43.979Z,28.20
2018-05-26T16:10:12.449Z,27.70
2018-05-26T16:12:40.404Z,27.70
2018-05-26T16:15:08.191Z,27.70
2018-05-26T16:17:35.893Z,27.70
2018-05-26T16:20:10.634Z,27.70
2018-05-26T16:22:39.223Z,27.80
2018-05-26T16:25:08.024Z,27.80
2018-05-26T16:27:36.732Z,27.70
2018-05-26T16:30:05.075Z,27.70
2018-05-26T16:32:32.877Z,27.70
2018-05-26T16:35:01.496Z,27.40
2018-05-26T16:37:29.709Z,27.50
2018-05-26T16:39:58.511Z,27.40
2018-05-26T16:42:26.031Z,27.40
2018-05-26T16:44:53.550Z,27.30
2018-05-26T16:47:21.045Z,27.20
2018-05-26T16:49:48.593Z,27.20
2018-05-26T16:52:17.143Z,27.10
2018-05-26T16:54:44.679Z,27.10
2018-05-26T16:57:12.192Z,27.10
2018-05-26T16:59:39.716Z,27.00
2018-05-26T17:02:07.220Z,26.90
2018-05-26T17:04:34.714Z,26.90
2018-05-26T17:07:02.235Z,27.00
2018-05-26T17:09:29.741Z,27.00
2018-05-26T17:11:57.269Z,27.00
2018-05-26T17:14:24.769Z,27.00
2018-05-26T17:16:52.288Z,26.90
2018-05-26T17:19:20.556Z,26.90
2018-05-26T17:21:48.078Z,26.90
2018-05-26T17:24:15.645Z,26.70
2018-05-26T17:26:43.174Z,26.70
2018-05-26T17:29:10.689Z,26.70
2018-05-26T17:31:38.218Z,26.70
2018-05-26T17:34:05.719Z,26.70
2018-05-26T17:36:33.239Z,26.70
2018-05-26T17:39:00.892Z,26.70
2018-05-26T17:41:28.421Z,26.80
2018-05-26T17:43:56.696Z,26.70
2018-05-26T17:46:24.228Z,26.70
2018-05-26T17:48:51.784Z,26.70
2018-05-26T17:51:19.315Z,26.60
2018-05-26T17:53:46.833Z,26.60
2018-05-26T17:56:14.386Z,26.50
2018-05-26T17:58:41.898Z,26.50
2018-05-26T18:01:10.197Z,26.40
2018-05-26T18:03:38.496Z,26.40
2018-05-26T18:06:06.023Z,26.40
2018-05-26T18:08:33.519Z,26.50
2018-05-26T18:11:01.040Z,26.50
2018-05-26T18:13:29.322Z,26.50
2018-05-26T18:15:57.612Z,26.50
2018-05-26T18:18:25.866Z,26.40
2018-05-26T18:20:54.161Z,26.30
2018-05-26T18:23:21.656Z,26.30
2018-05-26T18:25:49.939Z,26.20
2018-05-26T18:31:00.196Z,26.20
2018-05-26T18:33:27.907Z,26.10
2018-05-26T18:35:55.526Z,26.00
2018-05-26T18:38:23.065Z,25.90
2018-05-26T18:40:51.337Z,25.90
2018-05-26T18:43:18.860Z,25.90
2018-05-26T18:45:46.401Z,25.90
2018-05-26T18:48:14.705Z,25.70
2018-05-26T18:50:42.221Z,25.60
2018-05-26T18:53:09.758Z,25.60
2018-05-26T18:55:37.272Z,25.60
2018-05-26T18:58:04.802Z,25.50
2018-05-26T19:00:32.304Z,25.40
2018-05-26T19:02:59.846Z,25.30
2018-05-26T19:05:27.362Z,25.20
2018-05-26T19:07:54.904Z,25.20
2018-05-26T19:10:22.416Z,25.10
2018-05-26T19:12:49.939Z,25.10
2018-05-26T19:15:17.450Z,25.00
2018-05-26T19:17:44.966Z,24.90
2018-05-26T19:20:13.236Z,24.80
2018-05-26T19:22:41.541Z,24.80
2018-05-26T19:25:09.805Z,24.80
2018-05-26T19:27:37.323Z,24.70
2018-05-26T19:30:04.825Z,24.60
2018-05-26T19:32:32.339Z,24.60
2018-05-26T19:35:00.594Z,24.30
2018-05-26T19:37:28.149Z,24.30
2018-05-26T19:39:55.661Z,24.30
2018-05-26T19:42:23.179Z,24.20
2018-05-26T19:44:50.705Z,24.10
2018-05-26T19:47:18.982Z,24.00
2018-05-26T19:49:46.556Z,24.00
2018-05-26T19:52:14.021Z,24.00
2018-05-26T19:54:41.542Z,23.90
2018-05-26T19:57:09.048Z,23.80
2018-05-26T19:59:36.580Z,23.70
2018-05-26T20:02:04.131Z,23.70
2018-05-26T20:04:32.479Z,23.60
2018-05-26T20:07:00.053Z,23.60
2018-05-26T20:09:27.650Z,23.60
2018-05-26T20:11:56.022Z,23.60
2018-05-26T20:14:23.660Z,23.60
2018-05-26T20:16:51.370Z,23.60
2018-05-26T20:19:19.204Z,23.60
2018-05-26T20:21:46.817Z,23.50
2018-05-26T20:24:14.370Z,23.40
2018-05-26T20:26:41.941Z,23.30
2018-05-26T20:29:09.521Z,23.30
2018-05-26T20:31:37.086Z,23.30
2018-05-26T20:34:04.640Z,23.10
2018-05-26T20:36:32.150Z,23.00
2018-05-26T20:38:59.736Z,22.90
2018-05-26T20:41:27.293Z,22.80
2018-05-26T20:43:54.839Z,22.70
2018-05-26T20:46:22.382Z,22.60
2018-05-26T20:48:50.697Z,22.60
2018-05-26T20:51:18.217Z,22.60
2018-05-26T20:53:45.731Z,22.50
2018-05-26T20:56:14.024Z,22.40
2018-05-26T20:58:41.562Z,22.40
2018-05-26T21:01:09.882Z,22.30
2018-05-26T21:03:37.372Z,22.20
2018-05-26T21:06:04.893Z,22.20
2018-05-26T21:08:32.384Z,22.10
2018-05-26T21:11:00.664Z,21.90
2018-05-26T21:13:28.939Z,21.80
2018-05-26T21:15:56.461Z,21.80
2018-05-26T21:18:23.965Z,21.80
2018-05-26T21:20:51.560Z,21.70
2018-05-26T21:23:19.752Z,21.70
2018-05-26T21:25:47.281Z,21.70
2018-05-26T21:28:14.996Z,21.70
2018-05-26T21:30:43.299Z,21.60
2018-05-26T21:33:10.823Z,21.60
2018-05-26T21:35:38.367Z,21.60
2018-05-26T21:38:05.901Z,21.60
2018-05-26T21:40:34.209Z,21.40
2018-05-26T21:43:01.743Z,21.40
2018-05-26T21:45:29.286Z,21.20
2018-05-26T21:47:56.786Z,21.30
2018-05-26T21:50:24.327Z,21.20
2018-05-26T21:52:51.851Z,21.10
2018-05-26T21:55:20.146Z,21.10
2018-05-26T21:57:48.411Z,21.00
2018-05-26T22:00:15.942Z,21.00
2018-05-26T22:02:43.447Z,20.90
2018-05-26T22:05:10.994Z,21.00
2018-05-26T22:07:38.564Z,21.00
2018-05-26T22:10:06.078Z,21.00
2018-05-26T22:12:34.392Z,20.90
2018-05-26T22:15:01.921Z,20.90
2018-05-26T22:17:29.451Z,21.00
2018-05-26T22:19:57.409Z,21.00
2018-05-26T22:22:25.717Z,21.00
2018-05-26T22:24:53.211Z,21.00
2018-05-26T22:27:20.744Z,21.10
2018-05-26T22:29:49.012Z,21.10
2018-05-26T22:32:16.531Z,21.10
2018-05-26T22:34:44.058Z,21.10
2018-05-26T22:37:12.390Z,21.00
2018-05-26T22:39:39.902Z,21.00
2018-05-26T22:42:07.428Z,21.00
2018-05-26T22:44:34.930Z,21.00
2018-05-26T22:47:02.452Z,20.90
2018-05-26T22:49:30.732Z,20.90
2018-05-26T22:51:59.036Z,20.90
2018-05-26T22:54:26.550Z,20.90
2018-05-26T22:56:54.087Z,20.80
2018-05-26T22:59:21.592Z,20.80
2018-05-26T23:01:49.141Z,20.80
2018-05-26T23:04:16.658Z,20.80
2018-05-26T23:06:44.208Z,20.70
2018-05-26T23:09:11.754Z,20.70
2018-05-26T23:11:39.316Z,20.70
2018-05-26T23:14:06.825Z,20.60
2018-05-26T23:16:34.350Z,20.60
2018-05-26T23:19:01.866Z,20.50
2018-05-26T23:21:29.417Z,20.50
2018-05-26T23:23:56.921Z,20.30
2018-05-26T23:26:24.435Z,20.20
2018-05-26T23:28:52.756Z,20.00
2018-05-26T23:31:20.265Z,20.00
2018-05-26T23:33:47.814Z,20.00
2018-05-26T23:36:15.339Z,19.90
2018-05-26T23:38:43.654Z,19.80
2018-05-26T23:41:11.223Z,19.80
2018-05-26T23:43:39.663Z,19.70
2018-05-26T23:46:07.178Z,19.50
2018-05-26T23:48:34.709Z,19.40
2018-05-26T23:51:02.198Z,19.40
2018-05-26T23:53:30.495Z,19.30
2018-05-26T23:55:58.770Z,19.30
2018-05-26T23:58:26.297Z,19.20
